Time;durP1;ratioP1;P1;durP2;ratioP2;P2;SDS_P1;SDS_P2;PMS_P1;PMS_P2;Temp;Humidity;BMP_temperature;BMP_pressure;BME280_temperature;BME280_humidity;BME280_pressure;Samples;Min_cycle;Max_cycle;Signal;HPM_P1;HPM_P2
2023/06/16 00:00:45;;;;;;;;;;;23.90;45.80;;;;;;5048018;28;19987;-76
2023/06/16 00:03:15;;;;;;;;;;;23.90;46.20;;;;;;5052468;28;19936;-77
2023/06/16 00:05:46;;;;;;;;;;;23.80;45.70;;;;;;5053881;28;19937;-77
2023/06/16 00:08:14;;;;;;;;;;;23.80;45.70;;;;;;5049788;28;19929;-76
2023/06/16 00:10:41;;;;;;;;;;;23.70;45.80;;;;;;5045800;28;19971;-76
2023/06/16 00:13:09;;;;;;;;;;;23.70;45.80;;;;;;5052404;28;19933;-76
2023/06/16 00:15:36;;;;;;;;;;;23.60;45.90;;;;;;5049912;28;19975;-76
2023/06/16 00:18:02;;;;;;;;;;;23.60;45.90;;;;;;5048685;28;19936;-77
2023/06/16 00:20:29;;;;;;;;;;;23.60;45.90;;;;;;5051040;28;19932;-76
2023/06/16 00:22:57;;;;;;;;;;;23.50;46.00;;;;;;5048046;28;24202;-77
2023/06/16 00:25:24;;;;;;;;;;;23.50;46.10;;;;;;5047772;28;19928;-76
2023/06/16 00:27:50;;;;;;;;;;;23.50;46.00;;;;;;5047620;28;19962;-77
2023/06/16 00:30:18;;;;;;;;;;;23.40;46.20;;;;;;5047537;28;20168;-76
2023/06/16 00:32:45;;;;;;;;;;;23.40;46.30;;;;;;5046467;28;19997;-76
2023/06/16 00:35:11;;;;;;;;;;;23.40;46.30;;;;;;5045476;28;19932;-76
2023/06/16 00:37:38;;;;;;;;;;;23.30;46.20;;;;;;5046617;28;20395;-77
2023/06/16 00:40:05;;;;;;;;;;;23.30;46.40;;;;;;5046487;28;20589;-76
2023/06/16 00:42:32;;;;;;;;;;;23.20;46.40;;;;;;5046718;28;20317;-76
2023/06/16 00:44:58;;;;;;;;;;;23.20;46.50;;;;;;5049698;28;19958;-75
2023/06/16 00:47:26;;;;;;;;;;;23.10;46.60;;;;;;5044480;28;19928;-76
2023/06/16 00:49:53;;;;;;;;;;;23.10;46.60;;;;;;5051238;28;19929;-76
2023/06/16 00:52:21;;;;;;;;;;;23.00;46.60;;;;;;5050774;28;19936;-76
2023/06/16 00:54:48;;;;;;;;;;;23.00;46.70;;;;;;5053451;28;19937;-77
2023/06/16 00:57:14;;;;;;;;;;;23.00;46.80;;;;;;5050000;28;20380;-76
2023/06/16 00:59:41;;;;;;;;;;;22.90;46.80;;;;;;5049636;28;19933;-76
2023/06/16 01:02:07;;;;;;;;;;;22.90;46.90;;;;;;5044217;28;19932;-76
2023/06/16 01:04:35;;;;;;;;;;;22.90;47.10;;;;;;5052280;28;19932;-76
2023/06/16 01:07:09;;;;;;;;;;;22.80;47.10;;;;;;5047767;28;20395;-76
2023/06/16 01:09:43;;;;;;;;;;;22.80;47.10;;;;;;5048764;28;19939;-76
2023/06/16 01:12:12;;;;;;;;;;;22.70;47.00;;;;;;5051179;28;19928;-76
2023/06/16 01:14:44;;;;;;;;;;;22.70;47.20;;;;;;5048830;28;19929;-76
2023/06/16 01:17:11;;;;;;;;;;;22.70;47.20;;;;;;5051248;28;19935;-76
2023/06/16 01:19:43;;;;;;;;;;;22.60;47.20;;;;;;5041751;28;19990;-77
2023/06/16 01:22:13;;;;;;;;;;;22.60;47.30;;;;;;5050547;28;19932;-76
2023/06/16 01:24:42;;;;;;;;;;;22.50;47.30;;;;;;5050865;28;20002;-76
2023/06/16 01:27:08;;;;;;;;;;;22.50;47.40;;;;;;5049428;28;19929;-76
2023/06/16 01:29:37;;;;;;;;;;;22.50;47.50;;;;;;5047631;28;19954;-76
2023/06/16 01:32:07;;;;;;;;;;;22.40;47.50;;;;;;5048311;28;19936;-76
2023/06/16 01:34:34;;;;;;;;;;;22.40;47.60;;;;;;5048697;28;20470;-76
2023/06/16 01:37:01;;;;;;;;;;;22.40;47.70;;;;;;5050646;28;19928;-76
2023/06/16 01:39:28;;;;;;;;;;;22.30;47.70;;;;;;5048751;28;19928;-76
2023/06/16 01:41:56;;;;;;;;;;;22.30;47.80;;;;;;5045374;28;19928;-77
2023/06/16 01:44:23;;;;;;;;;;;22.20;47.70;;;;;;5050562;28;21188;-76
2023/06/16 01:46:50;;;;;;;;;;;22.20;47.80;;;;;;5048158;28;19928;-76
2023/06/16 01:49:16;;;;;;;;;;;22.10;47.80;;;;;;5051590;28;19947;-76
2023/06/16 01:51:43;;;;;;;;;;;22.10;47.90;;;;;;5046667;28;19981;-76
2023/06/16 01:54:10;;;;;;;;;;;22.10;48.00;;;;;;5054114;28;20006;-76
2023/06/16 01:56:36;;;;;;;;;;;22.00;48.00;;;;;;5048916;28;19928;-76
2023/06/16 01:59:04;;;;;;;;;;;22.00;48.20;;;;;;5048330;28;20696;-76
2023/06/16 02:01:31;;;;;;;;;;;22.00;48.20;;;;;;5042808;28;20502;-76
2023/06/16 02:04:02;;;;;;;;;;;22.00;48.20;;;;;;5041690;28;19974;-76
2023/06/16 02:06:30;;;;;;;;;;;21.90;48.20;;;;;;5046839;28;19932;-76
2023/06/16 02:08:58;;;;;;;;;;;21.90;48.30;;;;;;5043157;28;19936;-76
2023/06/16 02:11:24;;;;;;;;;;;21.80;48.30;;;;;;5045956;28;19936;-76
2023/06/16 02:13:51;;;;;;;;;;;21.80;48.50;;;;;;5045414;28;19994;-76
2023/06/16 02:16:20;;;;;;;;;;;21.80;48.50;;;;;;5043794;28;19928;-76
2023/06/16 02:18:49;;;;;;;;;;;21.70;48.60;;;;;;5045100;28;20410;-76
2023/06/16 02:21:16;;;;;;;;;;;21.70;48.60;;;;;;5048777;28;19963;-76
2023/06/16 02:23:42;;;;;;;;;;;21.60;48.60;;;;;;5049036;28;19936;-76
2023/06/16 02:26:09;;;;;;;;;;;21.60;48.70;;;;;;5051633;28;19932;-76
2023/06/16 02:28:36;;;;;;;;;;;21.60;48.70;;;;;;5048804;28;19936;-76
2023/06/16 02:31:02;;;;;;;;;;;21.50;48.70;;;;;;5049369;28;19951;-76
2023/06/16 02:33:30;;;;;;;;;;;21.60;48.90;;;;;;5054783;28;19936;-76
2023/06/16 02:35:56;;;;;;;;;;;21.50;48.80;;;;;;5054521;28;19932;-76
2023/06/16 02:38:24;;;;;;;;;;;21.50;48.90;;;;;;5053389;28;19929;-76
2023/06/16 02:40:50;;;;;;;;;;;21.40;49.00;;;;;;5053971;28;19929;-76
2023/06/16 02:43:18;;;;;;;;;;;21.40;49.00;;;;;;5059785;28;20377;-76
2023/06/16 02:45:45;;;;;;;;;;;21.30;49.10;;;;;;5052948;28;19928;-76
2023/06/16 02:48:11;;;;;;;;;;;21.30;49.20;;;;;;5050909;28;19967;-76
2023/06/16 02:50:39;;;;;;;;;;;21.30;49.30;;;;;;5054463;28;19987;-76
2023/06/16 02:53:06;;;;;;;;;;;21.30;49.30;;;;;;5055964;28;19983;-76
2023/06/16 02:55:32;;;;;;;;;;;21.20;49.40;;;;;;5052622;28;20271;-76
2023/06/16 02:57:59;;;;;;;;;;;21.10;49.40;;;;;;5051405;28;20006;-76
2023/06/16 03:00:26;;;;;;;;;;;21.10;49.40;;;;;;5054001;28;20008;-76
2023/06/16 03:02:52;;;;;;;;;;;21.10;49.50;;;;;;5056122;28;19929;-76
2023/06/16 03:05:20;;;;;;;;;;;21.10;49.50;;;;;;5049322;28;19977;-76
2023/06/16 03:07:47;;;;;;;;;;;21.00;49.60;;;;;;5052761;28;20654;-75
2023/06/16 03:10:14;;;;;;;;;;;21.00;49.70;;;;;;5048407;28;19933;-76
2023/06/16 03:12:40;;;;;;;;;;;21.00;49.70;;;;;;5052664;28;19973;-76
2023/06/16 03:15:08;;;;;;;;;;;20.90;49.70;;;;;;5050209;28;19982;-76
2023/06/16 03:17:35;;;;;;;;;;;20.90;49.80;;;;;;5053712;28;19928;-76
2023/06/16 03:20:01;;;;;;;;;;;20.90;49.80;;;;;;5045553;28;19928;-76
2023/06/16 03:22:28;;;;;;;;;;;20.80;49.90;;;;;;5053194;28;19928;-76
2023/06/16 03:25:02;;;;;;;;;;;20.80;49.90;;;;;;5054570;28;20298;-77
2023/06/16 03:27:29;;;;;;;;;;;20.80;50.00;;;;;;5054418;28;20019;-76
2023/06/16 03:29:55;;;;;;;;;;;20.70;50.10;;;;;;5047120;28;19928;-76
2023/06/16 03:32:22;;;;;;;;;;;20.70;50.00;;;;;;5053075;28;19994;-76
2023/06/16 03:34:48;;;;;;;;;;;20.70;50.10;;;;;;5056337;28;19928;-76
2023/06/16 03:37:15;;;;;;;;;;;20.70;50.20;;;;;;5055850;28;19928;-76
2023/06/16 03:39:41;;;;;;;;;;;20.60;50.20;;;;;;5053400;28;19928;-76
2023/06/16 03:42:10;;;;;;;;;;;20.60;50.30;;;;;;5054971;28;19924;-76
2023/06/16 03:44:37;;;;;;;;;;;20.60;50.40;;;;;;5056054;28;19955;-76
2023/06/16 03:47:03;;;;;;;;;;;20.50;50.40;;;;;;5059306;28;19939;-76
2023/06/16 03:49:30;;;;;;;;;;;20.50;50.40;;;;;;5047461;28;19946;-76
2023/06/16 03:51:57;;;;;;;;;;;20.50;50.50;;;;;;5045582;28;19928;-75
2023/06/16 03:54:26;;;;;;;;;;;20.40;50.50;;;;;;5043604;28;20158;-76
2023/06/16 03:56:52;;;;;;;;;;;20.40;50.60;;;;;;5044353;28;19943;-76
2023/06/16 03:59:21;;;;;;;;;;;20.40;50.60;;;;;;5047250;28;19939;-76
2023/06/16 04:01:51;;;;;;;;;;;20.40;50.70;;;;;;5046844;28;20314;-76
2023/06/16 04:04:18;;;;;;;;;;;20.30;50.70;;;;;;5046073;28;19932;-76
2023/06/16 04:06:44;;;;;;;;;;;20.30;50.80;;;;;;5048076;28;19928;-76
2023/06/16 04:09:11;;;;;;;;;;;20.30;50.80;;;;;;5047049;28;20378;-77
2023/06/16 04:11:40;;;;;;;;;;;20.20;50.80;;;;;;5045794;28;19932;-76
2023/06/16 04:14:09;;;;;;;;;;;20.20;50.90;;;;;;5047220;28;20070;-76
2023/06/16 04:16:37;;;;;;;;;;;20.20;51.00;;;;;;5047419;28;19933;-76
2023/06/16 04:19:06;;;;;;;;;;;20.10;51.00;;;;;;5045055;28;20013;-76
2023/06/16 04:21:33;;;;;;;;;;;20.10;51.00;;;;;;5052981;28;19929;-76
2023/06/16 04:24:00;;;;;;;;;;;20.10;51.10;;;;;;5044053;28;20477;-76
2023/06/16 04:26:28;;;;;;;;;;;20.10;51.20;;;;;;5053764;28;19979;-76
2023/06/16 04:28:55;;;;;;;;;;;20.10;51.20;;;;;;5048015;28;19928;-76
2023/06/16 04:31:22;;;;;;;;;;;20.10;51.20;;;;;;5047369;28;19936;-76
2023/06/16 04:33:50;;;;;;;;;;;20.00;51.30;;;;;;5054064;28;19928;-77
2023/06/16 04:36:19;;;;;;;;;;;20.00;51.30;;;;;;5053252;28;19932;-76
2023/06/16 04:38:45;;;;;;;;;;;19.90;51.40;;;;;;5052826;28;19955;-76
2023/06/16 04:41:12;;;;;;;;;;;19.90;51.50;;;;;;5054305;28;19936;-76
2023/06/16 04:43:39;;;;;;;;;;;19.90;51.50;;;;;;5057934;28;20005;-76
2023/06/16 04:46:06;;;;;;;;;;;19.90;51.60;;;;;;5045722;28;19932;-76
2023/06/16 04:48:32;;;;;;;;;;;19.90;51.70;;;;;;5049065;28;19924;-76
2023/06/16 04:51:00;;;;;;;;;;;19.80;51.70;;;;;;5048503;28;19925;-76
2023/06/16 04:53:28;;;;;;;;;;;19.80;51.70;;;;;;5055669;28;19937;-76
2023/06/16 04:55:55;;;;;;;;;;;19.80;51.80;;;;;;5048587;28;19924;-76
2023/06/16 04:58:22;;;;;;;;;;;19.80;51.90;;;;;;5046965;28;20022;-76
2023/06/16 05:00:49;;;;;;;;;;;19.80;52.00;;;;;;5046177;28;19924;-76
2023/06/16 05:03:16;;;;;;;;;;;19.80;52.10;;;;;;5043124;28;20035;-76
2023/06/16 05:05:43;;;;;;;;;;;19.70;52.10;;;;;;5049951;28;19932;-76
2023/06/16 05:08:11;;;;;;;;;;;19.70;52.20;;;;;;5046052;28;19931;-76
2023/06/16 05:10:37;;;;;;;;;;;19.70;52.30;;;;;;5049925;28;19932;-76
2023/06/16 05:13:04;;;;;;;;;;;19.70;52.40;;;;;;5047588;28;19976;-76
2023/06/16 05:15:30;;;;;;;;;;;19.70;52.50;;;;;;5044412;28;20350;-76
2023/06/16 05:17:57;;;;;;;;;;;19.70;52.50;;;;;;5046732;28;19932;-76
2023/06/16 05:20:23;;;;;;;;;;;19.70;52.50;;;;;;5045811;28;19936;-76
2023/06/16 05:22:50;;;;;;;;;;;19.70;52.70;;;;;;5054505;28;20014;-76
2023/06/16 05:25:18;;;;;;;;;;;19.70;52.70;;;;;;5052064;28;19929;-76
2023/06/16 05:27:44;;;;;;;;;;;19.60;52.70;;;;;;5051664;28;19928;-76
2023/06/16 05:30:11;;;;;;;;;;;19.60;52.80;;;;;;5047269;28;19935;-76
2023/06/16 05:32:38;;;;;;;;;;;19.60;52.90;;;;;;5058012;28;20674;-76
2023/06/16 05:35:05;;;;;;;;;;;19.60;52.90;;;;;;5047509;28;19932;-75
2023/06/16 05:37:31;;;;;;;;;;;19.60;53.00;;;;;;5053706;28;19935;-75
2023/06/16 05:39:58;;;;;;;;;;;19.70;53.10;;;;;;5051801;28;19994;-76
2023/06/16 05:42:26;;;;;;;;;;;19.70;53.20;;;;;;5049370;28;19986;-73
2023/06/16 05:44:52;;;;;;;;;;;19.60;53.40;;;;;;5062519;28;19932;-72
2023/06/16 05:47:20;;;;;;;;;;;19.60;53.60;;;;;;5055250;28;19933;-72
2023/06/16 05:49:46;;;;;;;;;;;19.70;53.80;;;;;;5045782;28;19929;-70
2023/06/16 05:52:13;;;;;;;;;;;19.60;53.80;;;;;;5057556;28;20006;-73
2023/06/16 05:54:40;;;;;;;;;;;19.70;53.80;;;;;;5049410;28;20388;-69
2023/06/16 05:57:07;;;;;;;;;;;19.70;53.80;;;;;;5051720;28;20409;-71
2023/06/16 05:59:35;;;;;;;;;;;19.70;53.80;;;;;;5051972;28;20704;-73
2023/06/16 06:02:02;;;;;;;;;;;19.70;53.70;;;;;;5052234;28;19939;-72
2023/06/16 06:04:29;;;;;;;;;;;19.70;53.70;;;;;;5051599;28;19990;-72
2023/06/16 06:06:55;;;;;;;;;;;19.70;53.80;;;;;;5048478;28;19933;-71
2023/06/16 06:09:22;;;;;;;;;;;19.70;53.70;;;;;;5047748;28;19973;-71
2023/06/16 06:11:49;;;;;;;;;;;19.70;53.60;;;;;;5048578;28;19935;-75
2023/06/16 06:14:16;;;;;;;;;;;19.70;53.60;;;;;;5058801;28;20294;-71
2023/06/16 06:16:44;;;;;;;;;;;19.70;53.60;;;;;;5046487;28;19928;-73
2023/06/16 06:19:10;;;;;;;;;;;19.70;53.50;;;;;;5055990;28;19928;-70
2023/06/16 06:21:38;;;;;;;;;;;19.70;53.50;;;;;;5050483;28;20283;-72
2023/06/16 06:24:05;;;;;;;;;;;19.80;53.50;;;;;;5051143;28;20387;-71
2023/06/16 06:26:32;;;;;;;;;;;19.80;53.40;;;;;;5051763;28;19973;-69
2023/06/16 06:28:58;;;;;;;;;;;19.80;53.40;;;;;;5047498;28;19975;-71
2023/06/16 06:31:25;;;;;;;;;;;19.80;53.30;;;;;;5048134;28;19986;-74
2023/06/16 06:33:53;;;;;;;;;;;19.80;53.30;;;;;;5047955;28;19932;-76
2023/06/16 06:36:22;;;;;;;;;;;19.80;53.20;;;;;;5048757;28;19928;-76
2023/06/16 06:38:49;;;;;;;;;;;19.80;53.20;;;;;;5038987;28;19939;-76
2023/06/16 06:41:17;;;;;;;;;;;19.80;53.10;;;;;;5034016;28;19935;-76
2023/06/16 06:43:44;;;;;;;;;;;19.80;53.10;;;;;;5033823;28;20704;-77
2023/06/16 06:46:10;;;;;;;;;;;19.80;53.20;;;;;;5034808;28;19933;-76
2023/06/16 06:48:37;;;;;;;;;;;19.80;53.10;;;;;;5032925;28;19932;-76
2023/06/16 06:51:05;;;;;;;;;;;19.90;53.20;;;;;;5041070;28;19931;-76
2023/06/16 06:53:32;;;;;;;;;;;19.90;53.50;;;;;;5052163;28;19935;-77
2023/06/16 06:55:59;;;;;;;;;;;19.90;53.50;;;;;;5051922;28;20301;-75
2023/06/16 06:58:25;;;;;;;;;;;19.90;53.40;;;;;;5048426;28;21786;-76
2023/06/16 07:00:52;;;;;;;;;;;19.90;53.40;;;;;;5054106;28;19932;-76
2023/06/16 07:03:18;;;;;;;;;;;19.90;53.30;;;;;;5045472;28;20532;-76
2023/06/16 07:05:45;;;;;;;;;;;20.00;53.30;;;;;;5051459;28;19944;-76
2023/06/16 07:08:13;;;;;;;;;;;20.00;53.40;;;;;;5057975;28;19936;-76
2023/06/16 07:10:39;;;;;;;;;;;20.00;53.40;;;;;;5052161;28;19928;-76
2023/06/16 07:13:06;;;;;;;;;;;20.00;53.40;;;;;;5053016;28;19929;-75
2023/06/16 07:15:33;;;;;;;;;;;20.00;53.40;;;;;;5055887;28;19929;-76
2023/06/16 07:18:00;;;;;;;;;;;20.00;53.50;;;;;;5058213;28;19928;-76
2023/06/16 07:20:26;;;;;;;;;;;20.00;53.40;;;;;;5048548;28;20525;-77
2023/06/16 07:22:53;;;;;;;;;;;20.00;53.50;;;;;;5047684;28;19936;-76
2023/06/16 07:25:21;;;;;;;;;;;20.10;53.60;;;;;;5048195;28;19935;-76
2023/06/16 07:27:47;;;;;;;;;;;20.10;53.60;;;;;;5048568;28;19928;-76
2023/06/16 07:30:14;;;;;;;;;;;20.10;53.50;;;;;;5046137;28;19936;-76
2023/06/16 07:32:41;;;;;;;;;;;20.10;53.50;;;;;;5048532;28;20039;-76
2023/06/16 07:35:08;;;;;;;;;;;20.10;53.60;;;;;;5048247;28;20408;-76
2023/06/16 07:37:34;;;;;;;;;;;20.20;53.60;;;;;;5050661;28;20027;-76
2023/06/16 07:40:01;;;;;;;;;;;20.20;53.60;;;;;;5044717;28;20010;-76
2023/06/16 07:42:29;;;;;;;;;;;20.20;53.50;;;;;;5047175;28;20349;-76
2023/06/16 07:44:55;;;;;;;;;;;20.20;53.50;;;;;;5044749;28;19944;-75
2023/06/16 07:47:22;;;;;;;;;;;20.20;53.50;;;;;;5045647;28;20704;-76
2023/06/16 07:49:48;;;;;;;;;;;20.30;53.50;;;;;;5047003;28;19963;-76
2023/06/16 07:52:15;;;;;;;;;;;20.30;53.40;;;;;;5051829;28;19928;-76
2023/06/16 07:54:41;;;;;;;;;;;20.30;53.30;;;;;;5056670;28;20099;-76
2023/06/16 07:57:08;;;;;;;;;;;20.30;53.30;;;;;;5056841;28;19928;-76
2023/06/16 07:59:36;;;;;;;;;;;20.30;53.30;;;;;;5050590;28;19981;-75
2023/06/16 08:02:03;;;;;;;;;;;20.30;53.20;;;;;;5058908;28;20564;-77
2023/06/16 08:04:30;;;;;;;;;;;20.40;53.20;;;;;;5052973;28;20710;-77
2023/06/16 08:06:57;;;;;;;;;;;20.40;53.40;;;;;;5056297;28;20772;-76
2023/06/16 08:09:23;;;;;;;;;;;20.40;53.10;;;;;;5044870;28;19928;-76
2023/06/16 08:11:50;;;;;;;;;;;20.40;53.00;;;;;;5048576;28;20333;-77
2023/06/16 08:14:17;;;;;;;;;;;20.50;52.90;;;;;;5046961;28;19994;-77
2023/06/16 08:16:45;;;;;;;;;;;20.50;52.80;;;;;;5044260;28;19924;-76
2023/06/16 08:19:11;;;;;;;;;;;20.50;52.70;;;;;;5053471;28;20012;-77
2023/06/16 08:21:38;;;;;;;;;;;20.60;52.80;;;;;;5050502;28;19979;-77
2023/06/16 08:24:05;;;;;;;;;;;20.60;52.70;;;;;;5052984;28;19938;-76
2023/06/16 08:26:32;;;;;;;;;;;20.60;52.60;;;;;;5051479;28;19928;-76
2023/06/16 08:28:59;;;;;;;;;;;20.70;52.60;;;;;;5047565;28;19928;-77
2023/06/16 08:31:27;;;;;;;;;;;20.70;52.40;;;;;;5047234;28;19933;-76
2023/06/16 08:33:56;;;;;;;;;;;20.70;52.20;;;;;;5046447;28;19925;-76
2023/06/16 08:36:24;;;;;;;;;;;20.70;52.30;;;;;;5045848;28;19940;-76
2023/06/16 08:38:52;;;;;;;;;;;20.80;52.20;;;;;;5045856;28;20015;-76
2023/06/16 08:41:19;;;;;;;;;;;20.90;52.10;;;;;;5051761;28;19933;-78
2023/06/16 08:43:49;;;;;;;;;;;20.90;52.00;;;;;;5046918;28;19929;-77
2023/06/16 08:46:15;;;;;;;;;;;20.90;51.80;;;;;;5046239;28;20853;-76
2023/06/16 08:48:43;;;;;;;;;;;21.00;51.50;;;;;;5044203;28;19952;-76
2023/06/16 08:51:14;;;;;;;;;;;21.00;51.40;;;;;;5048941;28;19936;-76
2023/06/16 08:53:41;;;;;;;;;;;21.00;51.20;;;;;;5046951;28;19935;-77
2023/06/16 08:56:09;;;;;;;;;;;21.10;51.10;;;;;;5048694;28;20418;-77
2023/06/16 08:58:37;;;;;;;;;;;21.30;50.70;;;;;;5051105;28;19928;-77
2023/06/16 09:01:04;;;;;;;;;;;21.70;48.10;;;;;;5055345;28;20724;-78
2023/06/16 09:03:32;;;;;;;;;;;22.30;47.20;;;;;;5050414;28;19938;-79
2023/06/16 09:05:59;;;;;;;;;;;22.70;45.60;;;;;;5048540;28;20054;-77
2023/06/16 09:08:27;;;;;;;;;;;23.10;44.50;;;;;;5046880;28;19928;-77
2023/06/16 09:10:55;;;;;;;;;;;23.50;41.90;;;;;;5046588;28;19929;-77
2023/06/16 09:13:22;;;;;;;;;;;23.80;42.90;;;;;;5045147;28;19939;-77
2023/06/16 09:15:49;;;;;;;;;;;24.00;42.30;;;;;;5047309;28;20534;-79
2023/06/16 09:18:16;;;;;;;;;;;24.20;42.40;;;;;;5051605;28;20379;-77
2023/06/16 09:20:44;;;;;;;;;;;24.40;40.60;;;;;;5051693;28;19933;-79
2023/06/16 09:23:11;;;;;;;;;;;24.60;39.50;;;;;;5054731;28;19951;-77
2023/06/16 09:25:39;;;;;;;;;;;24.90;39.20;;;;;;5054922;28;19933;-76
2023/06/16 09:28:08;;;;;;;;;;;25.00;39.50;;;;;;5050842;28;20374;-76
2023/06/16 09:30:35;;;;;;;;;;;24.70;40.00;;;;;;5046462;28;19939;-76
2023/06/16 09:33:02;;;;;;;;;;;24.40;39.60;;;;;;5048888;28;20561;-76
2023/06/16 09:35:29;;;;;;;;;;;24.10;40.50;;;;;;5050068;28;19928;-76
2023/06/16 09:37:56;;;;;;;;;;;23.80;41.00;;;;;;5050837;28;20051;-77
2023/06/16 09:40:26;;;;;;;;;;;23.60;41.40;;;;;;5050156;28;20397;-76
2023/06/16 09:42:56;;;;;;;;;;;23.50;42.00;;;;;;5048747;28;19928;-78
2023/06/16 09:45:26;;;;;;;;;;;23.40;41.40;;;;;;5050262;28;20758;-76
2023/06/16 09:47:53;;;;;;;;;;;23.40;40.90;;;;;;5052157;28;19929;-76
2023/06/16 09:50:23;;;;;;;;;;;23.40;41.50;;;;;;5052292;28;19928;-77
2023/06/16 09:52:50;;;;;;;;;;;23.40;41.40;;;;;;5045500;28;19928;-76
2023/06/16 09:55:16;;;;;;;;;;;23.40;41.30;;;;;;5048303;28;19929;-76
2023/06/16 09:57:43;;;;;;;;;;;23.50;39.50;;;;;;5048939;28;19932;-77
2023/06/16 10:00:15;;;;;;;;;;;23.50;40.10;;;;;;5049182;28;19932;-76
2023/06/16 10:02:42;;;;;;;;;;;23.90;35.30;;;;;;5047391;28;19936;-77
2023/06/16 10:05:10;;;;;;;;;;;24.00;35.80;;;;;;5048735;28;19990;-76
2023/06/16 10:07:37;;;;;;;;;;;24.00;36.70;;;;;;5047478;28;19936;-78
2023/06/16 10:10:05;;;;;;;;;;;24.00;37.60;;;;;;5045659;28;19937;-78
2023/06/16 10:12:32;;;;;;;;;;;24.00;38.20;;;;;;5052754;28;19932;-77
2023/06/16 10:15:01;;;;;;;;;;;23.90;38.70;;;;;;5049766;28;20314;-76
2023/06/16 10:17:29;;;;;;;;;;;23.90;39.50;;;;;;5050592;28;19935;-80
2023/06/16 10:19:55;;;;;;;;;;;23.80;40.00;;;;;;5049130;28;20027;-77
2023/06/16 10:22:22;;;;;;;;;;;23.90;39.50;;;;;;5046224;28;20503;-77
2023/06/16 10:24:49;;;;;;;;;;;23.90;39.80;;;;;;5046535;28;20374;-78
2023/06/16 10:27:16;;;;;;;;;;;23.90;39.80;;;;;;5051513;28;19928;-77
2023/06/16 10:29:46;;;;;;;;;;;24.00;39.70;;;;;;5044102;28;19928;-77
2023/06/16 10:32:13;;;;;;;;;;;24.00;40.40;;;;;;5046724;28;20437;-76
2023/06/16 10:34:48;;;;;;;;;;;24.00;40.40;;;;;;5043063;28;19928;-77
2023/06/16 10:37:15;;;;;;;;;;;24.10;40.50;;;;;;5049698;28;20005;-77
2023/06/16 10:39:42;;;;;;;;;;;24.10;40.20;;;;;;5047289;28;19928;-77
2023/06/16 10:42:11;;;;;;;;;;;24.20;40.20;;;;;;5056744;28;19978;-76
2023/06/16 10:44:38;;;;;;;;;;;24.30;40.40;;;;;;5045410;28;19972;-75
2023/06/16 10:47:26;;;;;;;;;;;24.30;40.40;;;;;;5044864;28;19928;-79
2023/06/16 10:49:55;;;;;;;;;;;24.40;40.30;;;;;;5040420;28;20391;-78
2023/06/16 10:52:31;;;;;;;;;;;24.50;39.70;;;;;;5042908;28;19928;-79
2023/06/16 10:54:58;;;;;;;;;;;24.50;39.50;;;;;;5045282;28;19982;-78
2023/06/16 10:57:25;;;;;;;;;;;24.60;39.00;;;;;;5050124;28;19933;-78
2023/06/16 10:59:53;;;;;;;;;;;24.60;39.00;;;;;;5047304;28;19929;-78
2023/06/16 11:02:22;;;;;;;;;;;24.70;39.30;;;;;;5049864;28;19928;-76
2023/06/16 11:05:07;;;;;;;;;;;24.70;39.40;;;;;;5046341;28;19936;-78
2023/06/16 11:07:37;;;;;;;;;;;24.80;39.70;;;;;;5047693;28;19939;-78
2023/06/16 11:10:03;;;;;;;;;;;24.90;39.60;;;;;;5048962;28;19941;-77
2023/06/16 11:12:30;;;;;;;;;;;25.00;39.00;;;;;;5049252;28;20434;-78
2023/06/16 11:14:56;;;;;;;;;;;25.00;38.60;;;;;;5049719;28;19928;-78
2023/06/16 11:17:23;;;;;;;;;;;25.50;34.10;;;;;;5049786;28;20610;-77
2023/06/16 11:19:51;;;;;;;;;;;25.80;34.60;;;;;;5050823;28;20006;-78
2023/06/16 11:22:27;;;;;;;;;;;25.90;34.90;;;;;;5058870;28;19928;-78
2023/06/16 11:24:55;;;;;;;;;;;25.90;35.20;;;;;;5052091;28;19928;-78
2023/06/16 11:27:21;;;;;;;;;;;25.80;35.60;;;;;;5050502;28;20534;-77
2023/06/16 11:29:48;;;;;;;;;;;25.80;35.90;;;;;;5052668;28;20283;-78
2023/06/16 11:32:16;;;;;;;;;;;25.70;36.00;;;;;;5052434;28;19974;-77
2023/06/16 11:34:43;;;;;;;;;;;25.70;36.10;;;;;;5053650;28;19935;-77
2023/06/16 11:37:10;;;;;;;;;;;25.70;36.00;;;;;;5055613;28;20420;-78
2023/06/16 11:39:42;;;;;;;;;;;25.70;36.40;;;;;;5042798;28;19929;-77
2023/06/16 11:42:13;;;;;;;;;;;25.80;36.90;;;;;;5045402;28;20001;-76
2023/06/16 11:44:39;;;;;;;;;;;25.80;37.20;;;;;;5043361;28;19936;-78
2023/06/16 11:47:06;;;;;;;;;;;25.80;36.80;;;;;;5045270;28;19990;-77
2023/06/16 11:49:34;;;;;;;;;;;25.90;37.00;;;;;;5042646;28;20059;-78
2023/06/16 11:52:02;;;;;;;;;;;25.90;36.40;;;;;;5043885;28;19928;-77
2023/06/16 11:54:29;;;;;;;;;;;25.90;36.80;;;;;;5045040;28;20039;-77
2023/06/16 11:56:57;;;;;;;;;;;26.00;36.70;;;;;;5045321;28;19924;-77
2023/06/16 11:59:28;;;;;;;;;;;26.00;37.20;;;;;;5044572;28;20402;-77
2023/06/16 12:01:56;;;;;;;;;;;26.10;37.10;;;;;;5043429;28;19933;-78
2023/06/16 12:04:22;;;;;;;;;;;26.10;36.90;;;;;;5049764;28;19932;-78
2023/06/16 12:06:49;;;;;;;;;;;26.20;37.40;;;;;;5048628;28;19933;-77
2023/06/16 12:09:19;;;;;;;;;;;26.20;37.20;;;;;;5051945;28;19929;-78
2023/06/16 12:11:46;;;;;;;;;;;26.30;37.10;;;;;;5048882;28;19928;-77
2023/06/16 12:14:16;;;;;;;;;;;26.30;36.60;;;;;;5048515;28;19966;-76
2023/06/16 12:16:44;;;;;;;;;;;26.30;36.80;;;;;;5054089;28;19933;-77
2023/06/16 12:19:11;;;;;;;;;;;26.30;36.30;;;;;;5059858;28;19932;-78
2023/06/16 12:21:38;;;;;;;;;;;26.40;37.10;;;;;;5054801;28;19932;-77
2023/06/16 12:24:05;;;;;;;;;;;26.50;37.30;;;;;;5060897;28;20739;-79
2023/06/16 12:26:32;;;;;;;;;;;26.50;37.20;;;;;;5059765;28;19929;-78
2023/06/16 12:29:00;;;;;;;;;;;26.50;37.20;;;;;;5047357;28;20523;-77
2023/06/16 12:31:28;;;;;;;;;;;26.60;37.40;;;;;;5055691;28;19932;-77
2023/06/16 12:33:57;;;;;;;;;;;26.60;36.80;;;;;;5056473;28;20040;-77
2023/06/16 12:36:23;;;;;;;;;;;26.60;37.50;;;;;;5047558;28;19929;-77
2023/06/16 12:38:50;;;;;;;;;;;26.70;37.90;;;;;;5058866;28;19940;-77
2023/06/16 12:41:17;;;;;;;;;;;26.70;37.60;;;;;;5054534;28;20434;-77
2023/06/16 12:43:47;;;;;;;;;;;26.70;37.50;;;;;;5058766;28;19929;-77
2023/06/16 12:46:13;;;;;;;;;;;26.70;37.40;;;;;;5049019;28;19929;-77
2023/06/16 12:48:40;;;;;;;;;;;26.70;37.30;;;;;;5062205;28;19944;-78
2023/06/16 12:51:08;;;;;;;;;;;26.70;36.80;;;;;;5058953;28;20680;-78
2023/06/16 12:53:38;;;;;;;;;;;26.80;36.10;;;;;;5046898;28;19932;-78
2023/06/16 12:56:06;;;;;;;;;;;26.80;35.90;;;;;;5053372;28;19925;-76
2023/06/16 12:58:33;;;;;;;;;;;26.90;36.40;;;;;;5047757;28;19928;-77
2023/06/16 13:01:00;;;;;;;;;;;26.90;36.30;;;;;;5058028;28;20349;-76
2023/06/16 13:03:26;;;;;;;;;;;27.00;36.50;;;;;;5051333;28;19959;-76
2023/06/16 13:05:53;;;;;;;;;;;27.10;36.30;;;;;;5051160;28;19936;-77
2023/06/16 13:08:21;;;;;;;;;;;27.10;36.10;;;;;;5048042;28;19929;-77
2023/06/16 13:10:47;;;;;;;;;;;27.10;36.20;;;;;;5053783;28;20017;-77
2023/06/16 13:13:14;;;;;;;;;;;27.20;37.30;;;;;;5052616;28;20701;-79
2023/06/16 13:15:40;;;;;;;;;;;27.20;37.40;;;;;;5049676;28;19929;-76
2023/06/16 13:18:08;;;;;;;;;;;27.20;38.40;;;;;;5052261;28;20617;-78
2023/06/16 13:20:34;;;;;;;;;;;27.20;36.90;;;;;;5052254;28;19935;-78
2023/06/16 13:23:01;;;;;;;;;;;27.20;37.20;;;;;;5047202;28;19940;-77
2023/06/16 13:25:28;;;;;;;;;;;27.30;37.20;;;;;;5050660;28;20341;-78
2023/06/16 13:27:55;;;;;;;;;;;27.30;36.30;;;;;;5048817;28;19928;-78
2023/06/16 13:30:21;;;;;;;;;;;27.30;36.00;;;;;;5053827;28;19932;-78
2023/06/16 13:32:48;;;;;;;;;;;27.40;36.60;;;;;;5050931;28;19943;-78
2023/06/16 13:35:15;;;;;;;;;;;27.40;36.50;;;;;;5061012;28;19981;-77
2023/06/16 13:37:42;;;;;;;;;;;27.50;36.30;;;;;;5051225;28;20362;-78
2023/06/16 13:40:09;;;;;;;;;;;27.50;35.70;;;;;;5047324;28;19933;-78
2023/06/16 13:42:37;;;;;;;;;;;27.60;35.40;;;;;;5055199;28;19935;-78
2023/06/16 13:45:06;;;;;;;;;;;27.70;35.30;;;;;;5046379;28;21322;-77
2023/06/16 13:47:32;;;;;;;;;;;27.70;35.50;;;;;;5056940;28;20292;-78
2023/06/16 13:49:59;;;;;;;;;;;27.80;35.80;;;;;;5048249;28;19932;-78
2023/06/16 13:52:26;;;;;;;;;;;27.90;36.40;;;;;;5050151;28;20057;-71
2023/06/16 13:54:52;;;;;;;;;;;27.90;37.20;;;;;;5050545;28;19928;-76
2023/06/16 13:57:19;;;;;;;;;;;27.90;37.30;;;;;;5049553;28;20352;-73
2023/06/16 13:59:47;;;;;;;;;;;28.00;36.90;;;;;;5043137;28;20535;-74
2023/06/16 14:02:13;;;;;;;;;;;28.00;36.30;;;;;;5048468;28;19963;-75
2023/06/16 14:04:40;;;;;;;;;;;28.10;36.00;;;;;;5047871;28;19932;-76
2023/06/16 14:07:06;;;;;;;;;;;28.10;35.40;;;;;;5049835;28;20413;-72
2023/06/16 14:09:33;;;;;;;;;;;28.10;35.10;;;;;;5051986;28;19990;-73
2023/06/16 14:11:59;;;;;;;;;;;28.20;34.90;;;;;;5050048;28;19933;-74
2023/06/16 14:14:26;;;;;;;;;;;28.20;34.80;;;;;;5054460;28;19928;-75
2023/06/16 14:16:54;;;;;;;;;;;28.20;34.60;;;;;;5057971;28;19932;-77